Terminal Aerodrome Forecast
Issued by NWS Jackson, KY

Home | Current Version | Previous Version | Text Only | Print | Product List | Glossary On
Versions: 1 2 3 4 5 6 7 8 9 10 11 12 13 14 15 16 17 18 19 20 21 22
000
FTUS43 KJKL 230400 CCB
TAFLOZ
TAF COR
KLOZ 230405Z 2304/2324 23007KT P6SM VCSH SCT020
     FM230500 VRB03KT 4SM BR VCSH SCT020 BKN100
      TEMPO 2309/2312 1/2SM FG VV003
     FM231500 VRB05KT P6SM SHRA VCTS SCT030CB BKN100=

USA.gov is the U.S. government's official web portal to all federal, state and local government web resources and services.